sensor_id;sensor_type;location;lat;lon;timestamp;P1;durP1;ratioP1;P2;durP2;ratioP2
52668;SDS011;59898;52.786;6.892;2023-01-29T00:01:56;27.15;;;14.60;;
52668;SDS011;59898;52.786;6.892;2023-01-29T00:05:17;21.33;;;14.60;;
52668;SDS011;59898;52.786;6.892;2023-01-29T00:08:37;18.98;;;14.63;;
52668;SDS011;59898;52.786;6.892;2023-01-29T00:11:58;21.38;;;14.13;;
52668;SDS011;59898;52.786;6.892;2023-01-29T00:15:19;26.88;;;16.25;;
52668;SDS011;59898;52.786;6.892;2023-01-29T00:18:40;22.38;;;15.38;;
52668;SDS011;59898;52.786;6.892;2023-01-29T00:22:01;23.02;;;15.23;;
52668;SDS011;59898;52.786;6.892;2023-01-29T00:25:21;23.23;;;15.18;;
52668;SDS011;59898;52.786;6.892;2023-01-29T00:28:42;23.60;;;15.40;;
52668;SDS011;59898;52.786;6.892;2023-01-29T00:32:03;23.98;;;17.15;;
52668;SDS011;59898;52.786;6.892;2023-01-29T00:35:24;23.30;;;14.73;;
52668;SDS011;59898;52.786;6.892;2023-01-29T00:38:44;25.45;;;16.60;;
52668;SDS011;59898;52.786;6.892;2023-01-29T00:42:13;23.83;;;15.88;;
52668;SDS011;59898;52.786;6.892;2023-01-29T00:45:52;21.98;;;16.00;;
52668;SDS011;59898;52.786;6.892;2023-01-29T00:49:13;22.05;;;15.55;;
52668;SDS011;59898;52.786;6.892;2023-01-29T00:52:34;22.02;;;15.43;;
52668;SDS011;59898;52.786;6.892;2023-01-29T00:55:55;28.10;;;15.43;;
52668;SDS011;59898;52.786;6.892;2023-01-29T00:59:16;22.90;;;14.60;;
52668;SDS011;59898;52.786;6.892;2023-01-29T01:02:37;25.73;;;15.10;;
52668;SDS011;59898;52.786;6.892;2023-01-29T01:06:16;18.25;;;12.88;;
52668;SDS011;59898;52.786;6.892;2023-01-29T01:09:37;24.38;;;16.88;;
52668;SDS011;59898;52.786;6.892;2023-01-29T01:13:16;21.23;;;15.00;;
52668;SDS011;59898;52.786;6.892;2023-01-29T01:16:36;21.85;;;15.30;;
52668;SDS011;59898;52.786;6.892;2023-01-29T01:19:57;21.45;;;15.45;;
52668;SDS011;59898;52.786;6.892;2023-01-29T01:23:18;18.52;;;13.43;;
52668;SDS011;59898;52.786;6.892;2023-01-29T01:26:39;22.45;;;14.50;;
52668;SDS011;59898;52.786;6.892;2023-01-29T01:30:00;21.17;;;14.50;;
52668;SDS011;59898;52.786;6.892;2023-01-29T01:33:21;20.15;;;13.80;;
52668;SDS011;59898;52.786;6.892;2023-01-29T01:36:41;25.30;;;15.68;;
52668;SDS011;59898;52.786;6.892;2023-01-29T01:40:06;22.83;;;15.48;;
52668;SDS011;59898;52.786;6.892;2023-01-29T01:50:59;19.85;;;14.88;;
52668;SDS011;59898;52.786;6.892;2023-01-29T01:54:25;21.48;;;14.57;;
52668;SDS011;59898;52.786;6.892;2023-01-29T01:57:51;20.25;;;14.13;;
52668;SDS011;59898;52.786;6.892;2023-01-29T02:01:16;17.80;;;13.00;;
52668;SDS011;59898;52.786;6.892;2023-01-29T02:04:37;22.08;;;14.27;;
52668;SDS011;59898;52.786;6.892;2023-01-29T02:08:35;22.13;;;14.52;;
52668;SDS011;59898;52.786;6.892;2023-01-29T02:12:20;18.90;;;13.10;;
52668;SDS011;59898;52.786;6.892;2023-01-29T02:15:42;20.17;;;14.00;;
52668;SDS011;59898;52.786;6.892;2023-01-29T02:19:10;23.00;;;14.82;;
52668;SDS011;59898;52.786;6.892;2023-01-29T02:30:40;19.95;;;14.95;;
52668;SDS011;59898;52.786;6.892;2023-01-29T02:34:37;22.17;;;14.00;;
52668;SDS011;59898;52.786;6.892;2023-01-29T02:38:52;21.80;;;14.75;;
52668;SDS011;59898;52.786;6.892;2023-01-29T02:42:34;20.00;;;13.88;;
52668;SDS011;59898;52.786;6.892;2023-01-29T02:46:24;19.40;;;13.60;;
52668;SDS011;59898;52.786;6.892;2023-01-29T02:50:02;24.83;;;14.73;;
52668;SDS011;59898;52.786;6.892;2023-01-29T02:53:25;26.05;;;15.10;;
52668;SDS011;59898;52.786;6.892;2023-01-29T02:56:53;21.42;;;15.30;;
52668;SDS011;59898;52.786;6.892;2023-01-29T03:00:19;23.08;;;14.25;;
52668;SDS011;59898;52.786;6.892;2023-01-29T03:03:50;20.52;;;13.82;;
52668;SDS011;59898;52.786;6.892;2023-01-29T03:07:15;23.60;;;14.48;;
52668;SDS011;59898;52.786;6.892;2023-01-29T03:10:57;23.42;;;15.45;;
52668;SDS011;59898;52.786;6.892;2023-01-29T03:14:30;23.50;;;15.50;;
52668;SDS011;59898;52.786;6.892;2023-01-29T03:18:19;20.45;;;14.00;;
52668;SDS011;59898;52.786;6.892;2023-01-29T03:21:47;22.90;;;14.82;;
52668;SDS011;59898;52.786;6.892;2023-01-29T03:25:20;18.97;;;13.90;;
52668;SDS011;59898;52.786;6.892;2023-01-29T03:29:02;21.30;;;14.23;;
52668;SDS011;59898;52.786;6.892;2023-01-29T03:32:43;25.17;;;14.90;;
52668;SDS011;59898;52.786;6.892;2023-01-29T03:36:12;21.60;;;15.63;;
52668;SDS011;59898;52.786;6.892;2023-01-29T03:39:38;25.30;;;16.40;;
52668;SDS011;59898;52.786;6.892;2023-01-29T03:46:56;24.02;;;16.60;;
52668;SDS011;59898;52.786;6.892;2023-01-29T03:57:37;20.80;;;15.73;;
52668;SDS011;59898;52.786;6.892;2023-01-29T04:01:17;23.58;;;16.00;;
52668;SDS011;59898;52.786;6.892;2023-01-29T04:04:53;22.67;;;15.45;;
52668;SDS011;59898;52.786;6.892;2023-01-29T04:08:23;21.48;;;15.38;;
52668;SDS011;59898;52.786;6.892;2023-01-29T04:12:09;25.48;;;16.92;;
52668;SDS011;59898;52.786;6.892;2023-01-29T04:15:30;25.30;;;16.63;;
52668;SDS011;59898;52.786;6.892;2023-01-29T04:18:57;22.52;;;15.32;;
52668;SDS011;59898;52.786;6.892;2023-01-29T04:22:23;24.33;;;16.35;;
52668;SDS011;59898;52.786;6.892;2023-01-29T04:26:04;24.80;;;18.23;;
52668;SDS011;59898;52.786;6.892;2023-01-29T04:34:02;22.35;;;16.35;;
52668;SDS011;59898;52.786;6.892;2023-01-29T04:37:42;21.95;;;15.98;;
52668;SDS011;59898;52.786;6.892;2023-01-29T04:41:39;25.58;;;17.35;;
52668;SDS011;59898;52.786;6.892;2023-01-29T04:56:50;21.98;;;16.40;;
52668;SDS011;59898;52.786;6.892;2023-01-29T05:00:28;20.30;;;16.10;;
52668;SDS011;59898;52.786;6.892;2023-01-29T05:03:52;23.50;;;16.38;;
52668;SDS011;59898;52.786;6.892;2023-01-29T05:07:14;29.23;;;19.00;;
52668;SDS011;59898;52.786;6.892;2023-01-29T05:10:37;22.52;;;17.17;;
52668;SDS011;59898;52.786;6.892;2023-01-29T05:13:59;24.95;;;17.05;;
52668;SDS011;59898;52.786;6.892;2023-01-29T05:17:23;23.33;;;17.98;;
52668;SDS011;59898;52.786;6.892;2023-01-29T05:20:44;24.92;;;17.58;;
52668;SDS011;59898;52.786;6.892;2023-01-29T05:24:14;28.67;;;18.75;;
52668;SDS011;59898;52.786;6.892;2023-01-29T05:27:40;25.63;;;17.77;;
52668;SDS011;59898;52.786;6.892;2023-01-29T05:31:19;29.60;;;17.63;;
52668;SDS011;59898;52.786;6.892;2023-01-29T05:34:40;27.58;;;18.67;;
52668;SDS011;59898;52.786;6.892;2023-01-29T05:38:00;25.85;;;18.52;;
52668;SDS011;59898;52.786;6.892;2023-01-29T05:41:21;32.15;;;21.08;;
52668;SDS011;59898;52.786;6.892;2023-01-29T05:44:42;29.77;;;19.42;;
52668;SDS011;59898;52.786;6.892;2023-01-29T05:48:02;23.38;;;18.38;;
52668;SDS011;59898;52.786;6.892;2023-01-29T05:51:23;26.63;;;18.42;;
52668;SDS011;59898;52.786;6.892;2023-01-29T05:54:44;25.45;;;18.13;;
52668;SDS011;59898;52.786;6.892;2023-01-29T05:58:04;27.88;;;18.38;;
52668;SDS011;59898;52.786;6.892;2023-01-29T06:01:25;26.45;;;19.35;;
52668;SDS011;59898;52.786;6.892;2023-01-29T06:04:46;24.83;;;18.75;;
52668;SDS011;59898;52.786;6.892;2023-01-29T06:08:07;26.27;;;17.77;;
52668;SDS011;59898;52.786;6.892;2023-01-29T06:11:27;26.60;;;19.83;;
52668;SDS011;59898;52.786;6.892;2023-01-29T06:14:49;26.17;;;19.58;;
52668;SDS011;59898;52.786;6.892;2023-01-29T06:18:09;26.08;;;19.40;;
52668;SDS011;59898;52.786;6.892;2023-01-29T06:21:30;26.83;;;18.25;;
52668;SDS011;59898;52.786;6.892;2023-01-29T06:24:51;25.88;;;19.77;;
52668;SDS011;59898;52.786;6.892;2023-01-29T06:28:11;29.65;;;18.95;;
52668;SDS011;59898;52.786;6.892;2023-01-29T06:31:32;25.00;;;19.17;;
52668;SDS011;59898;52.786;6.892;2023-01-29T06:34:53;24.92;;;18.42;;
52668;SDS011;59898;52.786;6.892;2023-01-29T06:38:13;28.02;;;19.70;;
52668;SDS011;59898;52.786;6.892;2023-01-29T06:41:34;26.05;;;19.58;;
52668;SDS011;59898;52.786;6.892;2023-01-29T06:44:55;26.90;;;18.42;;
52668;SDS011;59898;52.786;6.892;2023-01-29T06:48:16;28.70;;;18.38;;
52668;SDS011;59898;52.786;6.892;2023-01-29T06:51:37;26.02;;;19.88;;
52668;SDS011;59898;52.786;6.892;2023-01-29T06:54:58;27.40;;;18.55;;
52668;SDS011;59898;52.786;6.892;2023-01-29T06:58:19;25.85;;;20.90;;
52668;SDS011;59898;52.786;6.892;2023-01-29T07:01:40;27.27;;;20.38;;
52668;SDS011;59898;52.786;6.892;2023-01-29T07:05:03;27.75;;;20.58;;
52668;SDS011;59898;52.786;6.892;2023-01-29T07:08:23;25.33;;;19.02;;
52668;SDS011;59898;52.786;6.892;2023-01-29T07:11:44;27.52;;;19.17;;
52668;SDS011;59898;52.786;6.892;2023-01-29T07:15:05;28.67;;;20.25;;
52668;SDS011;59898;52.786;6.892;2023-01-29T07:18:26;28.42;;;20.35;;
52668;SDS011;59898;52.786;6.892;2023-01-29T07:21:48;25.15;;;19.15;;
52668;SDS011;59898;52.786;6.892;2023-01-29T07:25:08;27.30;;;19.45;;
52668;SDS011;59898;52.786;6.892;2023-01-29T07:28:29;26.40;;;17.83;;
52668;SDS011;59898;52.786;6.892;2023-01-29T07:31:50;25.20;;;18.60;;
52668;SDS011;59898;52.786;6.892;2023-01-29T07:35:11;27.90;;;20.05;;
52668;SDS011;59898;52.786;6.892;2023-01-29T07:38:31;27.60;;;19.67;;
52668;SDS011;59898;52.786;6.892;2023-01-29T07:41:52;30.35;;;21.48;;
52668;SDS011;59898;52.786;6.892;2023-01-29T07:45:12;28.08;;;20.38;;
52668;SDS011;59898;52.786;6.892;2023-01-29T07:48:33;27.48;;;20.35;;
52668;SDS011;59898;52.786;6.892;2023-01-29T07:51:54;27.50;;;19.60;;
52668;SDS011;59898;52.786;6.892;2023-01-29T07:55:15;31.83;;;20.65;;
52668;SDS011;59898;52.786;6.892;2023-01-29T07:58:36;31.20;;;20.52;;
52668;SDS011;59898;52.786;6.892;2023-01-29T08:01:57;30.73;;;21.67;;
52668;SDS011;59898;52.786;6.892;2023-01-29T08:05:18;27.27;;;19.55;;
52668;SDS011;59898;52.786;6.892;2023-01-29T08:08:39;29.50;;;21.23;;
52668;SDS011;59898;52.786;6.892;2023-01-29T08:11:59;26.52;;;20.17;;
52668;SDS011;59898;52.786;6.892;2023-01-29T08:15:20;28.98;;;19.30;;
52668;SDS011;59898;52.786;6.892;2023-01-29T08:18:41;27.83;;;19.83;;
52668;SDS011;59898;52.786;6.892;2023-01-29T08:22:05;26.50;;;18.95;;
52668;SDS011;59898;52.786;6.892;2023-01-29T08:25:26;26.02;;;19.52;;
52668;SDS011;59898;52.786;6.892;2023-01-29T08:28:46;31.13;;;19.67;;
52668;SDS011;59898;52.786;6.892;2023-01-29T08:32:10;29.33;;;20.02;;
52668;SDS011;59898;52.786;6.892;2023-01-29T08:35:31;27.25;;;19.58;;
52668;SDS011;59898;52.786;6.892;2023-01-29T08:38:51;28.45;;;19.88;;
52668;SDS011;59898;52.786;6.892;2023-01-29T08:42:12;25.75;;;18.77;;
52668;SDS011;59898;52.786;6.892;2023-01-29T08:45:33;30.17;;;19.92;;
52668;SDS011;59898;52.786;6.892;2023-01-29T08:48:56;28.88;;;19.35;;
52668;SDS011;59898;52.786;6.892;2023-01-29T08:52:17;26.67;;;19.25;;
52668;SDS011;59898;52.786;6.892;2023-01-29T08:55:38;32.00;;;20.40;;
52668;SDS011;59898;52.786;6.892;2023-01-29T08:59:00;29.75;;;20.08;;
52668;SDS011;59898;52.786;6.892;2023-01-29T09:02:20;30.92;;;19.73;;
52668;SDS011;59898;52.786;6.892;2023-01-29T09:05:41;27.88;;;19.38;;
52668;SDS011;59898;52.786;6.892;2023-01-29T09:09:02;29.02;;;19.42;;
52668;SDS011;59898;52.786;6.892;2023-01-29T09:12:23;29.48;;;20.13;;
52668;SDS011;59898;52.786;6.892;2023-01-29T09:15:44;27.77;;;19.80;;
52668;SDS011;59898;52.786;6.892;2023-01-29T09:19:05;28.92;;;20.48;;
52668;SDS011;59898;52.786;6.892;2023-01-29T09:22:25;32.97;;;20.98;;
52668;SDS011;59898;52.786;6.892;2023-01-29T09:25:47;29.30;;;21.00;;
52668;SDS011;59898;52.786;6.892;2023-01-29T09:29:09;30.65;;;18.38;;
52668;SDS011;59898;52.786;6.892;2023-01-29T09:32:30;25.88;;;19.50;;
52668;SDS011;59898;52.786;6.892;2023-01-29T09:35:52;26.13;;;19.92;;
52668;SDS011;59898;52.786;6.892;2023-01-29T09:39:13;27.75;;;21.05;;
52668;SDS011;59898;52.786;6.892;2023-01-29T09:42:36;24.73;;;18.95;;
52668;SDS011;59898;52.786;6.892;2023-01-29T09:49:40;29.02;;;19.80;;
52668;SDS011;59898;52.786;6.892;2023-01-29T09:53:20;27.67;;;19.45;;
52668;SDS011;59898;52.786;6.892;2023-01-29T09:56:49;26.42;;;20.05;;
52668;SDS011;59898;52.786;6.892;2023-01-29T10:00:14;27.35;;;18.83;;
52668;SDS011;59898;52.786;6.892;2023-01-29T10:14:57;24.85;;;19.35;;
52668;SDS011;59898;52.786;6.892;2023-01-29T10:23:15;26.85;;;20.17;;
52668;SDS011;59898;52.786;6.892;2023-01-29T10:26:16;26.02;;;20.25;;
52668;SDS011;59898;52.786;6.892;2023-01-29T10:29:41;29.48;;;20.67;;
52668;SDS011;59898;52.786;6.892;2023-01-29T10:33:04;26.80;;;20.15;;
52668;SDS011;59898;52.786;6.892;2023-01-29T10:40:15;27.10;;;19.70;;
52668;SDS011;59898;52.786;6.892;2023-01-29T10:43:39;30.75;;;19.90;;
52668;SDS011;59898;52.786;6.892;2023-01-29T10:58:13;32.25;;;21.80;;
52668;SDS011;59898;52.786;6.892;2023-01-29T11:01:59;27.98;;;19.40;;
52668;SDS011;59898;52.786;6.892;2023-01-29T11:05:27;26.35;;;19.88;;
52668;SDS011;59898;52.786;6.892;2023-01-29T11:09:25;29.33;;;21.48;;
52668;SDS011;59898;52.786;6.892;2023-01-29T11:12:48;27.73;;;18.90;;
52668;SDS011;59898;52.786;6.892;2023-01-29T11:16:09;34.08;;;22.33;;
52668;SDS011;59898;52.786;6.892;2023-01-29T11:19:49;32.90;;;21.17;;
52668;SDS011;59898;52.786;6.892;2023-01-29T11:23:28;27.25;;;20.73;;
52668;SDS011;59898;52.786;6.892;2023-01-29T11:26:51;32.83;;;22.13;;
52668;SDS011;59898;52.786;6.892;2023-01-29T11:30:27;24.45;;;19.88;;
52668;SDS011;59898;52.786;6.892;2023-01-29T11:34:00;27.67;;;20.55;;
52668;SDS011;59898;52.786;6.892;2023-01-29T11:37:38;27.10;;;19.63;;
52668;SDS011;59898;52.786;6.892;2023-01-29T11:41:09;30.05;;;19.20;;
52668;SDS011;59898;52.786;6.892;2023-01-29T11:47:58;30.65;;;21.25;;
52668;SDS011;59898;52.786;6.892;2023-01-29T11:51:20;27.92;;;19.63;;
52668;SDS011;59898;52.786;6.892;2023-01-29T11:54:48;27.90;;;19.55;;
52668;SDS011;59898;52.786;6.892;2023-01-29T11:58:20;30.60;;;19.88;;
52668;SDS011;59898;52.786;6.892;2023-01-29T12:01:48;26.85;;;19.38;;
52668;SDS011;59898;52.786;6.892;2023-01-29T12:05:16;29.77;;;19.05;;
52668;SDS011;59898;52.786;6.892;2023-01-29T12:08:38;28.55;;;21.38;;
52668;SDS011;59898;52.786;6.892;2023-01-29T12:12:15;28.35;;;20.90;;
52668;SDS011;59898;52.786;6.892;2023-01-29T12:19:56;31.05;;;22.95;;
52668;SDS011;59898;52.786;6.892;2023-01-29T12:30:47;26.75;;;21.92;;
52668;SDS011;59898;52.786;6.892;2023-01-29T12:34:14;28.88;;;20.40;;
52668;SDS011;59898;52.786;6.892;2023-01-29T12:38:17;32.28;;;20.55;;
52668;SDS011;59898;52.786;6.892;2023-01-29T12:41:41;27.20;;;21.25;;
52668;SDS011;59898;52.786;6.892;2023-01-29T12:45:06;28.48;;;20.40;;
52668;SDS011;59898;52.786;6.892;2023-01-29T12:48:33;28.95;;;19.88;;
52668;SDS011;59898;52.786;6.892;2023-01-29T12:58:52;32.63;;;21.23;;
52668;SDS011;59898;52.786;6.892;2023-01-29T13:02:17;33.63;;;24.10;;
52668;SDS011;59898;52.786;6.892;2023-01-29T13:06:05;35.15;;;23.48;;
52668;SDS011;59898;52.786;6.892;2023-01-29T13:09:30;31.52;;;22.48;;
52668;SDS011;59898;52.786;6.892;2023-01-29T13:13:04;40.40;;;25.67;;
52668;SDS011;59898;52.786;6.892;2023-01-29T13:16:46;31.83;;;22.85;;
52668;SDS011;59898;52.786;6.892;2023-01-29T13:20:15;33.92;;;24.23;;
52668;SDS011;59898;52.786;6.892;2023-01-29T13:23:51;34.78;;;24.38;;
52668;SDS011;59898;52.786;6.892;2023-01-29T13:27:21;37.17;;;24.27;;
52668;SDS011;59898;52.786;6.892;2023-01-29T13:31:08;37.92;;;23.52;;
52668;SDS011;59898;52.786;6.892;2023-01-29T13:34:34;33.42;;;22.92;;
52668;SDS011;59898;52.786;6.892;2023-01-29T13:37:57;38.30;;;23.30;;
52668;SDS011;59898;52.786;6.892;2023-01-29T13:41:17;33.67;;;24.40;;
52668;SDS011;59898;52.786;6.892;2023-01-29T13:44:38;30.67;;;22.75;;
52668;SDS011;59898;52.786;6.892;2023-01-29T13:48:09;32.78;;;22.67;;
52668;SDS011;59898;52.786;6.892;2023-01-29T13:51:40;37.00;;;25.02;;
52668;SDS011;59898;52.786;6.892;2023-01-29T14:08:50;39.05;;;26.58;;
52668;SDS011;59898;52.786;6.892;2023-01-29T14:12:30;38.38;;;26.67;;
52668;SDS011;59898;52.786;6.892;2023-01-29T14:19:19;42.65;;;26.15;;
52668;SDS011;59898;52.786;6.892;2023-01-29T14:22:43;38.08;;;26.25;;
52668;SDS011;59898;52.786;6.892;2023-01-29T14:29:48;40.65;;;27.90;;
52668;SDS011;59898;52.786;6.892;2023-01-29T14:33:22;42.15;;;24.98;;
52668;SDS011;59898;52.786;6.892;2023-01-29T14:36:43;40.88;;;27.42;;
52668;SDS011;59898;52.786;6.892;2023-01-29T14:43:41;39.35;;;26.98;;
52668;SDS011;59898;52.786;6.892;2023-01-29T14:47:02;36.03;;;25.80;;
52668;SDS011;59898;52.786;6.892;2023-01-29T14:57:20;41.28;;;26.23;;
52668;SDS011;59898;52.786;6.892;2023-01-29T15:00:43;43.67;;;29.20;;
52668;SDS011;59898;52.786;6.892;2023-01-29T15:11:02;44.42;;;28.45;;
52668;SDS011;59898;52.786;6.892;2023-01-29T15:18:29;42.70;;;29.15;;
52668;SDS011;59898;52.786;6.892;2023-01-29T15:22:06;44.35;;;28.67;;
52668;SDS011;59898;52.786;6.892;2023-01-29T15:25:34;45.85;;;30.23;;
52668;SDS011;59898;52.786;6.892;2023-01-29T15:28:57;44.97;;;30.27;;
52668;SDS011;59898;52.786;6.892;2023-01-29T15:32:24;46.63;;;32.30;;
52668;SDS011;59898;52.786;6.892;2023-01-29T15:35:54;45.53;;;31.55;;
52668;SDS011;59898;52.786;6.892;2023-01-29T15:39:20;47.78;;;30.95;;
52668;SDS011;59898;52.786;6.892;2023-01-29T15:42:46;42.75;;;30.02;;
52668;SDS011;59898;52.786;6.892;2023-01-29T15:46:29;50.20;;;31.73;;
52668;SDS011;59898;52.786;6.892;2023-01-29T15:49:58;47.05;;;30.63;;
52668;SDS011;59898;52.786;6.892;2023-01-29T15:53:20;44.85;;;29.90;;
52668;SDS011;59898;52.786;6.892;2023-01-29T15:56:46;45.83;;;30.23;;
52668;SDS011;59898;52.786;6.892;2023-01-29T16:00:23;47.22;;;32.08;;
52668;SDS011;59898;52.786;6.892;2023-01-29T16:03:48;50.15;;;33.22;;
52668;SDS011;59898;52.786;6.892;2023-01-29T16:10:30;49.50;;;31.80;;
52668;SDS011;59898;52.786;6.892;2023-01-29T16:13:52;47.20;;;31.77;;
52668;SDS011;59898;52.786;6.892;2023-01-29T16:17:21;56.40;;;33.25;;
52668;SDS011;59898;52.786;6.892;2023-01-29T16:20:44;48.13;;;32.53;;
52668;SDS011;59898;52.786;6.892;2023-01-29T16:24:11;54.78;;;35.00;;
52668;SDS011;59898;52.786;6.892;2023-01-29T16:27:38;51.60;;;32.38;;
52668;SDS011;59898;52.786;6.892;2023-01-29T16:31:02;45.67;;;31.25;;
52668;SDS011;59898;52.786;6.892;2023-01-29T16:37:56;45.13;;;31.02;;
52668;SDS011;59898;52.786;6.892;2023-01-29T16:44:49;48.70;;;32.30;;
52668;SDS011;59898;52.786;6.892;2023-01-29T16:48:27;48.70;;;32.25;;
52668;SDS011;59898;52.786;6.892;2023-01-29T16:51:51;46.05;;;30.55;;
52668;SDS011;59898;52.786;6.892;2023-01-29T16:55:16;53.45;;;30.20;;
52668;SDS011;59898;52.786;6.892;2023-01-29T16:58:40;46.60;;;31.55;;
52668;SDS011;59898;52.786;6.892;2023-01-29T17:02:01;46.40;;;31.02;;
52668;SDS011;59898;52.786;6.892;2023-01-29T17:05:27;44.80;;;28.63;;
52668;SDS011;59898;52.786;6.892;2023-01-29T17:08:50;43.00;;;29.88;;
52668;SDS011;59898;52.786;6.892;2023-01-29T17:12:15;39.95;;;29.13;;
52668;SDS011;59898;52.786;6.892;2023-01-29T17:19:10;52.85;;;31.60;;
52668;SDS011;59898;52.786;6.892;2023-01-29T17:22:36;43.93;;;28.97;;
52668;SDS011;59898;52.786;6.892;2023-01-29T17:25:57;47.50;;;29.13;;
52668;SDS011;59898;52.786;6.892;2023-01-29T17:29:20;41.42;;;27.80;;
52668;SDS011;59898;52.786;6.892;2023-01-29T17:32:44;40.35;;;30.23;;
52668;SDS011;59898;52.786;6.892;2023-01-29T17:36:05;47.10;;;31.05;;
52668;SDS011;59898;52.786;6.892;2023-01-29T17:39:32;42.58;;;29.98;;
52668;SDS011;59898;52.786;6.892;2023-01-29T17:42:53;43.78;;;27.10;;
52668;SDS011;59898;52.786;6.892;2023-01-29T17:46:14;42.03;;;28.98;;
52668;SDS011;59898;52.786;6.892;2023-01-29T17:49:36;41.92;;;27.58;;
52668;SDS011;59898;52.786;6.892;2023-01-29T17:52:57;41.22;;;27.67;;
52668;SDS011;59898;52.786;6.892;2023-01-29T17:56:22;43.15;;;27.88;;
52668;SDS011;59898;52.786;6.892;2023-01-29T17:59:49;42.25;;;28.38;;
52668;SDS011;59898;52.786;6.892;2023-01-29T18:03:09;42.38;;;28.60;;
52668;SDS011;59898;52.786;6.892;2023-01-29T18:06:30;44.08;;;28.90;;
52668;SDS011;59898;52.786;6.892;2023-01-29T18:09:51;38.72;;;28.23;;
52668;SDS011;59898;52.786;6.892;2023-01-29T18:13:12;41.53;;;28.85;;
52668;SDS011;59898;52.786;6.892;2023-01-29T18:16:33;41.00;;;28.52;;
52668;SDS011;59898;52.786;6.892;2023-01-29T18:23:18;43.67;;;29.92;;
52668;SDS011;59898;52.786;6.892;2023-01-29T18:26:39;46.90;;;28.50;;
52668;SDS011;59898;52.786;6.892;2023-01-29T18:29:59;46.55;;;30.15;;
52668;SDS011;59898;52.786;6.892;2023-01-29T18:33:20;38.75;;;25.52;;
52668;SDS011;59898;52.786;6.892;2023-01-29T18:36:43;52.75;;;32.95;;
52668;SDS011;59898;52.786;6.892;2023-01-29T18:40:06;47.17;;;33.78;;
52668;SDS011;59898;52.786;6.892;2023-01-29T18:43:28;37.33;;;28.75;;
52668;SDS011;59898;52.786;6.892;2023-01-29T18:46:49;42.55;;;29.85;;
52668;SDS011;59898;52.786;6.892;2023-01-29T18:50:10;49.70;;;32.40;;
52668;SDS011;59898;52.786;6.892;2023-01-29T18:53:31;46.30;;;29.92;;
52668;SDS011;59898;52.786;6.892;2023-01-29T18:56:52;42.95;;;29.75;;
52668;SDS011;59898;52.786;6.892;2023-01-29T19:00:13;43.25;;;28.92;;
52668;SDS011;59898;52.786;6.892;2023-01-29T19:03:34;49.80;;;30.38;;
52668;SDS011;59898;52.786;6.892;2023-01-29T19:06:55;49.17;;;32.13;;
52668;SDS011;59898;52.786;6.892;2023-01-29T19:10:16;50.00;;;30.08;;
52668;SDS011;59898;52.786;6.892;2023-01-29T19:13:37;45.83;;;29.92;;
52668;SDS011;59898;52.786;6.892;2023-01-29T19:16:57;52.95;;;30.70;;
52668;SDS011;59898;52.786;6.892;2023-01-29T19:20:20;49.97;;;32.67;;
52668;SDS011;59898;52.786;6.892;2023-01-29T19:23:41;47.83;;;30.00;;
52668;SDS011;59898;52.786;6.892;2023-01-29T19:27:02;51.83;;;30.75;;
52668;SDS011;59898;52.786;6.892;2023-01-29T19:30:24;53.30;;;30.90;;
52668;SDS011;59898;52.786;6.892;2023-01-29T19:33:45;52.38;;;31.95;;
52668;SDS011;59898;52.786;6.892;2023-01-29T19:37:06;53.65;;;32.47;;
52668;SDS011;59898;52.786;6.892;2023-01-29T19:40:27;49.97;;;30.83;;
52668;SDS011;59898;52.786;6.892;2023-01-29T19:43:47;57.28;;;31.92;;
52668;SDS011;59898;52.786;6.892;2023-01-29T19:47:08;50.10;;;31.45;;
52668;SDS011;59898;52.786;6.892;2023-01-29T19:50:29;55.85;;;31.35;;
52668;SDS011;59898;52.786;6.892;2023-01-29T19:53:50;49.35;;;29.80;;
52668;SDS011;59898;52.786;6.892;2023-01-29T19:57:10;46.95;;;29.70;;
52668;SDS011;59898;52.786;6.892;2023-01-29T20:00:31;51.28;;;31.80;;
52668;SDS011;59898;52.786;6.892;2023-01-29T20:03:52;50.58;;;30.65;;
52668;SDS011;59898;52.786;6.892;2023-01-29T20:07:12;49.75;;;32.00;;
52668;SDS011;59898;52.786;6.892;2023-01-29T20:10:33;45.38;;;29.25;;
52668;SDS011;59898;52.786;6.892;2023-01-29T20:13:54;52.13;;;31.15;;
52668;SDS011;59898;52.786;6.892;2023-01-29T20:17:15;50.47;;;29.30;;
52668;SDS011;59898;52.786;6.892;2023-01-29T20:20:39;50.90;;;31.27;;
52668;SDS011;59898;52.786;6.892;2023-01-29T20:24:04;44.15;;;28.23;;
52668;SDS011;59898;52.786;6.892;2023-01-29T20:27:25;48.95;;;30.55;;
52668;SDS011;59898;52.786;6.892;2023-01-29T20:30:46;48.33;;;29.23;;
52668;SDS011;59898;52.786;6.892;2023-01-29T20:34:07;47.05;;;27.88;;
52668;SDS011;59898;52.786;6.892;2023-01-29T20:37:28;44.95;;;29.08;;
52668;SDS011;59898;52.786;6.892;2023-01-29T20:40:49;50.38;;;30.80;;
52668;SDS011;59898;52.786;6.892;2023-01-29T20:44:09;46.30;;;28.45;;
52668;SDS011;59898;52.786;6.892;2023-01-29T20:47:30;39.55;;;28.02;;
52668;SDS011;59898;52.786;6.892;2023-01-29T20:50:51;47.50;;;27.67;;
52668;SDS011;59898;52.786;6.892;2023-01-29T20:54:12;49.13;;;26.40;;
52668;SDS011;59898;52.786;6.892;2023-01-29T20:57:33;46.42;;;27.95;;
52668;SDS011;59898;52.786;6.892;2023-01-29T21:00:54;47.63;;;29.48;;
52668;SDS011;59898;52.786;6.892;2023-01-29T21:04:14;47.60;;;28.20;;
52668;SDS011;59898;52.786;6.892;2023-01-29T21:07:35;44.47;;;28.58;;
52668;SDS011;59898;52.786;6.892;2023-01-29T21:10:56;42.92;;;27.48;;
52668;SDS011;59898;52.786;6.892;2023-01-29T21:14:17;50.60;;;28.90;;
52668;SDS011;59898;52.786;6.892;2023-01-29T21:17:37;46.97;;;27.73;;
52668;SDS011;59898;52.786;6.892;2023-01-29T21:20:58;44.70;;;28.38;;
52668;SDS011;59898;52.786;6.892;2023-01-29T21:24:19;45.88;;;27.83;;
52668;SDS011;59898;52.786;6.892;2023-01-29T21:27:39;48.60;;;30.67;;
52668;SDS011;59898;52.786;6.892;2023-01-29T21:31:01;47.58;;;28.95;;
52668;SDS011;59898;52.786;6.892;2023-01-29T21:34:23;45.30;;;27.42;;
52668;SDS011;59898;52.786;6.892;2023-01-29T21:37:44;42.95;;;27.77;;
52668;SDS011;59898;52.786;6.892;2023-01-29T21:41:06;44.30;;;28.98;;
52668;SDS011;59898;52.786;6.892;2023-01-29T21:44:28;43.58;;;27.05;;
52668;SDS011;59898;52.786;6.892;2023-01-29T21:47:49;52.38;;;29.23;;
52668;SDS011;59898;52.786;6.892;2023-01-29T21:51:10;48.97;;;30.38;;
52668;SDS011;59898;52.786;6.892;2023-01-29T21:54:30;48.28;;;29.30;;
52668;SDS011;59898;52.786;6.892;2023-01-29T21:57:54;49.30;;;26.48;;
52668;SDS011;59898;52.786;6.892;2023-01-29T22:01:15;43.08;;;28.20;;
52668;SDS011;59898;52.786;6.892;2023-01-29T22:04:35;43.88;;;26.90;;
52668;SDS011;59898;52.786;6.892;2023-01-29T22:07:56;43.83;;;28.33;;
52668;SDS011;59898;52.786;6.892;2023-01-29T22:11:17;46.45;;;27.85;;
52668;SDS011;59898;52.786;6.892;2023-01-29T22:14:37;43.33;;;26.02;;
52668;SDS011;59898;52.786;6.892;2023-01-29T22:18:01;42.95;;;28.13;;
52668;SDS011;59898;52.786;6.892;2023-01-29T22:21:22;45.75;;;27.88;;
52668;SDS011;59898;52.786;6.892;2023-01-29T22:24:43;47.10;;;29.30;;
52668;SDS011;59898;52.786;6.892;2023-01-29T22:28:05;45.57;;;28.30;;
52668;SDS011;59898;52.786;6.892;2023-01-29T22:31:26;46.47;;;28.08;;
52668;SDS011;59898;52.786;6.892;2023-01-29T22:34:46;42.53;;;27.60;;
52668;SDS011;59898;52.786;6.892;2023-01-29T22:38:07;41.80;;;27.45;;